Time;durP1;ratioP1;P1;durP2;ratioP2;P2;SDS_P1;SDS_P2;PMS_P1;PMS_P2;Temp;Humidity;BMP_temperature;BMP_pressure;BME280_temperature;BME280_humidity;BME280_pressure;Samples;Min_cycle;Max_cycle;Signal;HPM_P1;HPM_P2
2022/11/07 11:59:19;;;;;;;;;3.25;2.00;;;;;18.03;76.68;101113.13;6211489;22;49720;-73
2022/11/07 12:02:18;;;;;;;;;1.75;0.75;;;;;18.05;76.15;101111.38;6217290;22;49444;-73
2022/11/07 12:05:18;;;;;;;;;3.00;2.00;;;;;17.91;75.26;101068.03;6216583;22;51365;-73
2022/11/07 12:07:52;;;;;;;;;4.75;2.25;;;;;18.03;75.19;101097.19;6212670;22;49380;-73
2022/11/07 12:10:42;;;;;;;;;2.75;2.00;;;;;18.20;75.11;101118.38;6216967;22;49404;-73
2022/11/07 12:13:29;;;;;;;;;3.00;1.75;;;;;18.29;74.28;101105.03;6209894;22;49735;-73
2022/11/07 12:16:00;;;;;;;;;3.00;2.00;;;;;18.33;74.00;101092.59;6204422;22;52402;-73
2022/11/07 12:18:45;;;;;;;;;2.50;1.75;;;;;18.41;73.35;101088.13;6205324;22;49905;-73
2022/11/07 12:21:25;;;;;;;;;1.00;1.00;;;;;18.45;72.89;101087.22;6205219;22;49665;-73
2022/11/07 12:24:12;;;;;;;;;1.25;1.25;;;;;18.42;72.53;101068.63;6205283;22;49650;-74
2022/11/07 12:26:55;;;;;;;;;2.00;2.00;;;;;18.65;72.43;101071.19;6204062;22;49769;-74
2022/11/07 12:29:40;;;;;;;;;2.00;1.00;;;;;18.80;72.16;101076.38;6205315;22;49718;-74
2022/11/07 12:32:23;;;;;;;;;3.00;2.75;;;;;18.89;71.43;101073.63;6205231;22;49765;-74
2022/11/07 12:34:57;;;;;;;;;6.75;5.25;;;;;18.91;71.71;101084.25;6205783;22;49735;-74
2022/11/07 12:37:44;;;;;;;;;2.75;2.25;;;;;18.12;71.59;100955.44;6206958;22;52166;-73
2022/11/07 12:40:33;;;;;;;;;2.25;2.25;;;;;18.85;70.72;101063.94;6205222;22;49653;-73
2022/11/07 12:43:12;;;;;;;;;2.00;2.00;;;;;18.53;71.83;101014.50;6205484;22;49757;-73
2022/11/07 12:45:53;;;;;;;;;2.00;2.00;;;;;18.72;70.99;101054.25;6210089;22;49753;-74
2022/11/07 12:48:58;;;;;;;;;1.25;1.25;;;;;18.59;71.75;101072.06;6205711;22;50856;-72
2022/11/07 12:51:38;;;;;;;;;2.75;1.50;;;;;18.52;71.98;101065.91;6205523;22;49637;-72
2022/11/07 12:54:29;;;;;;;;;1.25;1.00;;;;;18.41;72.91;101057.13;6205696;22;49658;-74
2022/11/07 12:56:56;;;;;;;;;5.00;2.50;;;;;18.48;73.33;101066.81;6205853;22;49792;-74
2022/11/07 12:59:31;;;;;;;;;5.00;2.00;;;;;17.27;72.84;100893.94;6205375;22;50866;-72
2022/11/07 13:02:31;;;;;;;;;3.00;1.00;;;;;17.54;72.89;100903.53;6205533;22;49915;-73
2022/11/07 13:05:19;;;;;;;;;1.00;1.00;;;;;18.57;72.93;101066.75;6206470;22;49500;-73
2022/11/07 13:07:56;;;;;;;;;1.25;1.00;;;;;18.46;72.09;101026.09;6174120;22;49763;-72
2022/11/07 13:10:43;;;;;;;;;2.25;2.00;;;;;18.62;72.37;101042.78;6204706;22;49776;-74
2022/11/07 13:13:23;;;;;;;;;4.25;2.00;;;;;18.78;71.65;101087.03;6205979;22;49903;-73
2022/11/07 13:15:49;;;;;;;;;0.75;0.25;;;;;18.27;71.27;100965.97;6202263;22;49621;-74
2022/11/07 13:18:25;;;;;;;;;3.50;2.75;;;;;18.86;71.89;101071.88;6207082;22;49704;-73
2022/11/07 13:21:01;;;;;;;;;1.00;1.00;;;;;18.79;71.03;101067.50;6207678;22;49792;-73
2022/11/07 13:23:27;;;;;;;;;2.50;2.50;;;;;18.62;71.14;101010.88;6205501;22;49744;-72
2022/11/07 13:25:58;;;;;;;;;3.25;2.00;;;;;18.44;71.24;100979.16;6205214;22;49989;-71
2022/11/07 13:28:45;;;;;;;;;0.50;0.50;;;;;18.93;70.80;101064.75;6204760;22;49956;-71
2022/11/07 13:31:29;;;;;;;;;0.25;0.25;;;;;18.92;70.52;101052.34;6187796;22;50384;-72
2022/11/07 13:34:08;;;;;;;;;1.75;1.75;;;;;18.35;70.63;100973.91;6205195;22;49805;-70
2022/11/07 13:36:34;;;;;;;;;2.00;1.00;;;;;17.25;70.20;100797.56;6207933;22;49880;-72
2022/11/07 13:39:05;;;;;;;;;4.50;3.00;;;;;18.78;70.59;101041.81;6208328;22;49872;-72
2022/11/07 13:41:32;;;;;;;;;3.75;2.00;;;;;18.84;70.42;101032.91;6205335;22;50986;-72
2022/11/07 13:44:05;;;;;;;;;1.50;1.00;;;;;18.91;70.09;101047.00;6203128;22;49677;-72
2022/11/07 13:46:36;;;;;;;;;2.25;2.25;;;;;18.49;70.33;100950.72;6205092;22;49635;-72
2022/11/07 13:49:13;;;;;;;;;2.00;2.00;;;;;18.87;68.81;101032.88;6206478;22;49681;-72
2022/11/07 13:51:44;;;;;;;;;3.50;2.25;;;;;18.59;68.68;100987.84;6204302;22;50414;-72
2022/11/07 13:54:14;;;;;;;;;2.50;1.25;;;;;18.90;68.24;101030.16;6204712;22;49764;-73
2022/11/07 13:56:52;;;;;;;;;3.00;3.00;;;;;18.90;67.33;101018.66;6202474;22;49963;-72
2022/11/07 13:59:27;;;;;;;;;4.25;3.00;;;;;18.91;66.86;101020.41;6194586;22;49745;-73
2022/11/07 14:01:56;;;;;;;;;4.75;1.00;;;;;18.69;66.46;100985.16;6208819;22;50917;-72
2022/11/07 14:04:26;;;;;;;;;5.00;3.00;;;;;18.73;67.08;101003.75;6208445;22;49815;-72
2022/11/07 14:06:59;;;;;;;;;1.00;1.00;;;;;18.68;66.32;101016.19;6211836;22;49557;-74
2022/11/07 14:09:27;;;;;;;;;2.25;1.50;;;;;18.37;66.38;100961.47;6204492;22;49710;-73
2022/11/07 14:11:54;;;;;;;;;1.00;1.00;;;;;18.71;66.69;101029.44;6205429;22;50500;-74
2022/11/07 14:14:23;;;;;;;;;1.25;1.25;;;;;18.74;66.92;101032.09;6212081;22;49704;-73
2022/11/07 14:16:48;;;;;;;;;2.00;2.00;;;;;18.73;66.37;101021.47;6212839;22;49433;-72
2022/11/07 14:19:25;;;;;;;;;2.50;1.50;;;;;18.28;66.46;100935.84;6206848;22;49637;-72
2022/11/07 14:21:53;;;;;;;;;0.25;0.25;;;;;18.79;65.63;101024.94;6202949;22;51572;-71
2022/11/07 14:24:32;;;;;;;;;3.00;2.00;;;;;18.76;65.82;101019.66;6206734;22;49566;-75
2022/11/07 14:27:03;;;;;;;;;1.75;1.00;;;;;18.54;65.78;100987.03;6207061;22;49472;-74
2022/11/07 14:29:30;;;;;;;;;2.00;2.00;;;;;17.59;66.37;100848.69;6205084;22;50089;-75
2022/11/07 14:32:04;;;;;;;;;1.50;1.50;;;;;18.40;66.92;101006.63;6202343;22;50825;-75
2022/11/07 14:34:33;;;;;;;;;1.75;1.00;;;;;18.09;67.39;100964.34;6210328;22;49551;-74
2022/11/07 14:37:00;;;;;;;;;1.75;1.75;;;;;18.27;68.24;101022.66;6206323;22;49748;-75
2022/11/07 14:39:30;;;;;;;;;1.75;0.00;;;;;18.29;69.06;101020.00;6204970;22;49763;-74
2022/11/07 14:41:57;;;;;;;;;3.00;2.00;;;;;17.92;69.35;100982.13;6203609;22;49695;-75
2022/11/07 14:44:28;;;;;;;;;3.00;2.00;;;;;17.76;69.73;100948.59;6206549;22;49875;-75
2022/11/07 14:46:56;;;;;;;;;2.00;1.25;;;;;18.13;70.51;101019.19;6205500;22;49597;-74
2022/11/07 14:49:26;;;;;;;;;1.75;1.75;;;;;17.95;71.27;100993.66;6205604;22;49642;-74
2022/11/07 14:51:53;;;;;;;;;2.00;1.00;;;;;17.84;71.77;100981.28;6203682;22;49743;-74
2022/11/07 14:54:21;;;;;;;;;2.25;2.25;;;;;18.06;72.20;101045.84;6205569;22;49500;-74
2022/11/07 14:56:53;;;;;;;;;3.00;2.00;;;;;17.24;72.74;100917.84;6205671;22;49812;-75
2022/11/07 14:59:20;;;;;;;;;4.25;3.00;;;;;17.93;73.05;101007.81;6204505;22;50390;-73
2022/11/07 15:01:56;;;;;;;;;3.25;2.00;;;;;17.97;73.61;101020.19;6202114;22;50567;-76
2022/11/07 15:04:42;;;;;;;;;5.25;2.25;;;;;17.09;73.70;100876.38;6203640;22;49488;-74
2022/11/07 15:07:17;;;;;;;;;1.75;1.75;;;;;17.85;74.34;101013.16;6204128;22;49929;-75
2022/11/07 15:09:42;;;;;;;;;2.50;2.50;;;;;17.83;75.06;101017.59;6205568;22;49654;-77
2022/11/07 15:12:18;;;;;;;;;6.75;2.50;;;;;17.70;75.34;101002.63;6205882;22;50181;-77
2022/11/07 15:14:44;;;;;;;;;4.00;2.50;;;;;17.58;76.09;100998.22;6204497;22;49681;-73
2022/11/07 15:17:22;;;;;;;;;2.75;2.00;;;;;17.02;76.49;100900.25;6202750;22;50483;-75
2022/11/07 15:19:58;;;;;;;;;2.50;2.00;;;;;17.63;76.96;101014.13;6204590;22;49887;-74
2022/11/07 15:22:29;;;;;;;;;6.00;4.50;;;;;16.93;77.34;100903.81;6203964;22;50533;-74
2022/11/07 15:24:54;;;;;;;;;3.00;2.50;;;;;15.90;77.69;100751.19;6204638;22;49846;-73
2022/11/07 15:27:32;;;;;;;;;4.75;4.00;;;;;17.43;78.53;101004.47;6203954;22;49701;-72
2022/11/07 15:30:00;;;;;;;;;2.25;2.25;;;;;17.22;79.16;100988.59;6204636;22;49914;-75
2022/11/07 15:32:36;;;;;;;;;9.00;4.00;;;;;17.34;79.67;101015.09;6201697;22;51795;-74
2022/11/07 15:35:14;;;;;;;;;3.00;3.00;;;;;16.59;80.09;100887.06;6200494;22;49867;-74
2022/11/07 15:37:39;;;;;;;;;3.50;2.50;;;;;16.79;80.47;100958.63;6203765;22;49687;-74
2022/11/07 15:40:14;;;;;;;;;2.75;1.75;;;;;16.59;81.72;100916.22;6201207;22;49686;-74
2022/11/07 15:42:39;;;;;;;;;3.75;3.25;;;;;16.95;82.37;100970.09;6202618;22;50934;-73
2022/11/07 15:45:05;;;;;;;;;4.00;3.00;;;;;16.59;82.59;100921.50;6203306;22;49620;-74
2022/11/07 15:47:30;;;;;;;;;4.75;2.50;;;;;17.05;83.04;101006.31;6203970;22;49672;-75
2022/11/07 15:49:56;;;;;;;;;3.50;2.50;;;;;16.38;83.23;100918.88;6201991;22;49765;-76
2022/11/07 15:52:21;;;;;;;;;4.00;3.00;;;;;16.98;83.07;101008.09;6203777;22;50344;-74
2022/11/07 15:54:46;;;;;;;;;5.25;3.00;;;;;16.91;83.44;101009.00;6202925;22;49621;-73
2022/11/07 15:57:12;;;;;;;;;1.50;1.50;;;;;16.73;83.54;100977.22;6202914;22;50076;-75
2022/11/07 15:59:37;;;;;;;;;5.25;4.00;;;;;16.02;83.22;100892.41;6204548;22;49768;-72
2022/11/07 16:02:04;;;;;;;;;3.75;3.00;;;;;16.50;83.44;100961.28;6203409;22;50049;-73
2022/11/07 16:04:29;;;;;;;;;3.75;2.50;;;;;16.75;83.57;101024.03;6204091;22;49910;-73
2022/11/07 16:06:55;;;;;;;;;5.00;3.75;;;;;16.70;83.96;101024.94;6204577;22;49790;-73
2022/11/07 16:09:21;;;;;;;;;6.50;2.00;;;;;16.63;84.26;101036.38;6204606;22;49740;-73
2022/11/07 16:11:47;;;;;;;;;2.00;2.00;;;;;16.58;84.33;101016.03;6204094;22;49909;-72
2022/11/07 16:14:15;;;;;;;;;2.00;2.00;;;;;16.43;84.30;100997.50;6203674;22;49987;-74
2022/11/07 16:16:43;;;;;;;;;5.00;3.00;;;;;16.52;84.34;101041.69;6204424;22;49744;-72
2022/11/07 16:19:17;;;;;;;;;2.75;1.75;;;;;16.44;84.13;101032.84;6204665;22;49922;-72
2022/11/07 16:21:43;;;;;;;;;2.00;2.00;;;;;16.41;84.54;101035.50;6204113;22;49744;-73
2022/11/07 16:24:08;;;;;;;;;2.75;1.75;;;;;16.05;84.70;100981.56;6205391;22;49775;-73
2022/11/07 16:26:34;;;;;;;;;5.25;4.00;;;;;16.06;84.61;101004.50;6204680;22;49713;-74
2022/11/07 16:29:00;;;;;;;;;3.25;3.25;;;;;14.55;84.52;100737.72;6204948;22;49780;-75
2022/11/07 16:31:25;;;;;;;;;3.50;3.50;;;;;15.32;84.66;100899.28;6206967;22;50574;-73
2022/11/07 16:33:52;;;;;;;;;3.25;3.25;;;;;15.52;85.60;100904.63;6204393;22;50182;-74
2022/11/07 16:36:29;;;;;;;;;5.50;3.00;;;;;15.37;85.47;100894.91;6204315;22;49708;-75
2022/11/07 16:38:54;;;;;;;;;4.50;4.00;;;;;15.50;85.60;100923.16;6204911;22;50216;-73
2022/11/07 16:41:20;;;;;;;;;2.00;1.75;;;;;16.03;85.78;101020.41;6203085;22;50851;-74
2022/11/07 16:43:46;;;;;;;;;5.00;2.50;;;;;15.46;86.02;100914.31;6203492;22;49652;-73
2022/11/07 16:46:15;;;;;;;;;4.00;3.25;;;;;16.00;85.95;101020.38;6204158;22;49567;-76
2022/11/07 16:48:41;;;;;;;;;4.00;4.00;;;;;16.03;86.11;101033.66;6206519;22;50263;-74
2022/11/07 16:51:13;;;;;;;;;2.00;2.00;;;;;16.03;85.93;101038.94;6203551;22;50377;-76
2022/11/07 16:53:39;;;;;;;;;4.00;3.00;;;;;15.82;86.04;101007.06;6203472;22;49673;-72
2022/11/07 16:56:05;;;;;;;;;5.25;2.50;;;;;15.96;86.65;101037.16;6204011;22;50752;-74
2022/11/07 16:58:32;;;;;;;;;1.00;1.00;;;;;15.94;86.37;101030.97;6204228;22;49857;-68
2022/11/07 17:01:02;;;;;;;;;2.25;2.25;;;;;15.86;86.11;101041.53;6203853;22;49927;-72
2022/11/07 17:03:28;;;;;;;;;3.00;1.25;;;;;15.88;86.83;101036.22;6202843;22;50153;-70
2022/11/07 17:05:55;;;;;;;;;3.00;2.00;;;;;15.81;86.96;101023.84;6204224;22;49661;-76
2022/11/07 17:08:24;;;;;;;;;3.00;2.00;;;;;15.87;87.34;101035.34;6205966;22;49751;-81
2022/11/07 17:10:50;;;;;;;;;3.00;3.00;;;;;14.83;87.47;100875.25;6204794;22;49833;-74
2022/11/07 17:13:15;;;;;;;;;3.00;3.00;;;;;15.84;87.79;101038.00;6200062;22;49726;-73
2022/11/07 17:15:41;;;;;;;;;3.75;3.00;;;;;15.29;88.17;100960.97;6202916;22;50065;-74
2022/11/07 17:18:21;;;;;;;;;4.75;3.00;;;;;15.30;88.53;100949.53;6202710;22;49533;-73
2022/11/07 17:20:47;;;;;;;;;4.25;3.50;;;;;15.83;88.73;101035.34;6201166;22;50510;-72
2022/11/07 17:23:12;;;;;;;;;1.00;1.00;;;;;15.75;89.46;101019.44;6204073;22;50095;-75
2022/11/07 17:25:39;;;;;;;;;5.25;3.25;;;;;15.86;89.71;101038.00;6204841;22;49723;-76
2022/11/07 17:28:05;;;;;;;;;4.75;3.25;;;;;15.63;89.34;100993.81;6204523;22;49908;-76
2022/11/07 17:30:32;;;;;;;;;3.00;3.00;;;;;15.59;89.52;100983.16;6204899;22;49782;-74
2022/11/07 17:32:58;;;;;;;;;5.25;4.50;;;;;15.43;89.10;100959.25;6206339;22;49956;-74
2022/11/07 17:35:23;;;;;;;;;5.00;3.50;;;;;14.66;89.27;100842.56;6207734;22;50000;-75
2022/11/07 17:37:48;;;;;;;;;3.75;2.00;;;;;15.43;89.58;100969.84;6204052;22;49849;-76
2022/11/07 17:40:20;;;;;;;;;3.75;3.75;;;;;14.69;89.65;100867.28;6203785;22;49760;-77
2022/11/07 17:42:45;;;;;;;;;3.50;3.00;;;;;14.82;89.59;100869.09;6205778;22;49721;-76
2022/11/07 17:45:11;;;;;;;;;4.50;3.00;;;;;14.53;90.18;100846.91;6205673;22;49519;-76
2022/11/07 17:47:36;;;;;;;;;3.00;2.00;;;;;15.56;89.68;101012.25;6205820;22;49926;-76
2022/11/07 17:50:03;;;;;;;;;4.25;3.00;;;;;15.33;90.08;100975.97;6205975;22;49688;-73
2022/11/07 17:52:29;;;;;;;;;3.50;2.75;;;;;14.29;89.95;100797.44;6205776;22;49545;-76
2022/11/07 17:54:54;;;;;;;;;3.50;2.50;;;;;14.83;90.07;100904.31;6206036;22;49860;-75
2022/11/07 17:57:20;;;;;;;;;3.25;2.00;;;;;14.94;89.64;100905.28;6204799;22;49806;-75
2022/11/07 17:59:45;;;;;;;;;1.75;1.75;;;;;15.66;89.74;101049.38;6205837;22;50650;-76
2022/11/07 18:02:18;;;;;;;;;3.75;3.00;;;;;15.11;89.73;100923.88;6205496;22;49663;-76
2022/11/07 18:04:44;;;;;;;;;2.50;2.50;;;;;15.46;89.06;101006.94;6205773;22;49760;-78
2022/11/07 18:07:11;;;;;;;;;3.50;2.00;;;;;15.33;88.63;100956.56;6205512;22;49744;-75
2022/11/07 18:09:38;;;;;;;;;2.50;2.50;;;;;14.91;88.29;100876.19;6205197;22;49742;-75
2022/11/07 18:12:04;;;;;;;;;2.00;2.00;;;;;14.79;88.55;100861.16;6205526;22;49548;-75
2022/11/07 18:14:29;;;;;;;;;1.50;1.50;;;;;15.71;88.38;101034.38;6205307;22;49570;-75
2022/11/07 18:16:54;;;;;;;;;2.25;2.00;;;;;15.82;87.95;101025.59;6205961;22;49626;-75
2022/11/07 18:19:20;;;;;;;;;2.50;1.00;;;;;14.25;87.28;100754.28;6204816;22;54340;-75
2022/11/07 18:21:45;;;;;;;;;1.00;1.00;;;;;15.24;87.35;100930.09;6205023;22;49579;-75
2022/11/07 18:24:11;;;;;;;;;2.75;2.75;;;;;15.34;86.96;100947.75;6204324;22;50033;-76
2022/11/07 18:26:37;;;;;;;;;2.75;2.00;;;;;14.41;86.96;100781.66;6205319;22;49720;-76
2022/11/07 18:29:08;;;;;;;;;5.00;2.50;;;;;14.84;86.69;100885.84;6203377;22;49927;-75
2022/11/07 18:31:35;;;;;;;;;2.50;2.00;;;;;14.65;86.54;100838.16;6204866;22;49733;-76
2022/11/07 18:34:03;;;;;;;;;6.50;2.50;;;;;14.35;86.57;100767.53;6204833;22;49548;-75
2022/11/07 18:36:30;;;;;;;;;4.25;4.25;;;;;15.47;86.73;100978.69;6203819;22;49602;-77
2022/11/07 18:39:00;;;;;;;;;4.75;3.50;;;;;15.18;86.74;100930.97;6201892;22;51519;-75
2022/11/07 18:41:25;;;;;;;;;2.00;2.00;;;;;15.32;86.99;100960.09;6203976;22;49804;-75
2022/11/07 18:43:53;;;;;;;;;2.50;2.50;;;;;14.19;86.77;100772.75;6204176;22;49745;-75
2022/11/07 18:46:18;;;;;;;;;3.50;3.25;;;;;14.84;86.83;100898.16;6204209;22;49811;-75
2022/11/07 18:48:44;;;;;;;;;6.00;4.00;;;;;15.69;87.21;101035.28;6204701;22;50548;-80
2022/11/07 18:51:15;;;;;;;;;3.00;3.00;;;;;15.66;87.12;101014.09;6204017;22;49860;-77
2022/11/07 18:53:41;;;;;;;;;2.50;2.50;;;;;15.39;87.33;100981.31;6204241;22;49856;-76
2022/11/07 18:56:08;;;;;;;;;6.00;3.00;;;;;14.02;87.20;100753.25;6204203;22;49614;-77
2022/11/07 18:58:35;;;;;;;;;3.00;2.00;;;;;14.76;87.66;100882.25;6203211;22;51125;-75
2022/11/07 19:01:02;;;;;;;;;2.75;2.75;;;;;14.79;87.59;100892.00;6203187;22;49884;-75
2022/11/07 19:03:28;;;;;;;;;4.75;3.00;;;;;14.47;87.82;100841.56;6203884;22;49824;-75
2022/11/07 19:05:59;;;;;;;;;4.25;4.25;;;;;15.48;87.99;101016.63;6204619;22;49611;-75
2022/11/07 19:08:28;;;;;;;;;4.25;4.25;;;;;14.49;88.50;100875.06;6203994;22;49851;-78
2022/11/07 19:10:54;;;;;;;;;4.00;3.50;;;;;15.40;88.72;101032.44;6204097;22;50159;-76
2022/11/07 19:13:20;;;;;;;;;4.00;4.00;;;;;14.21;88.72;100831.72;6204551;22;49777;-76
2022/11/07 19:15:45;;;;;;;;;7.00;5.50;;;;;13.92;88.91;100764.63;6204906;22;49683;-75
2022/11/07 19:18:10;;;;;;;;;4.25;4.25;;;;;15.33;89.41;100999.78;6203466;22;50460;-75
2022/11/07 19:20:38;;;;;;;;;4.00;4.00;;;;;15.34;89.22;100998.91;6203614;22;49803;-75
2022/11/07 19:23:03;;;;;;;;;3.00;3.00;;;;;15.32;89.34;101005.94;6201734;22;49720;-75
2022/11/07 19:25:29;;;;;;;;;4.00;4.00;;;;;14.68;90.04;100898.97;6202053;22;49834;-76
2022/11/07 19:27:55;;;;;;;;;4.00;4.00;;;;;15.23;90.23;101002.38;6208017;22;51195;-76
2022/11/07 19:30:21;;;;;;;;;6.25;4.00;;;;;14.41;90.09;100892.59;6206133;22;49680;-75
2022/11/07 19:32:47;;;;;;;;;6.00;4.75;;;;;15.03;90.37;100963.47;6204700;22;49590;-74
2022/11/07 19:35:12;;;;;;;;;5.50;5.00;;;;;15.10;90.51;100975.00;6207402;22;49696;-75
2022/11/07 19:37:37;;;;;;;;;4.25;3.75;;;;;15.07;90.49;100967.94;6206684;22;49835;-75
2022/11/07 19:40:05;;;;;;;;;5.25;5.25;;;;;14.83;90.63;100921.06;6204143;22;49604;-80
2022/11/07 19:42:30;;;;;;;;;5.50;4.50;;;;;14.31;89.91;100833.53;6205694;22;49674;-79
2022/11/07 19:44:55;;;;;;;;;5.00;3.00;;;;;14.17;90.43;100844.84;6207448;22;49843;-80
2022/11/07 19:47:21;;;;;;;;;8.00;6.75;;;;;13.57;90.51;100728.28;6205028;22;49900;-75
2022/11/07 19:49:46;;;;;;;;;7.25;3.25;;;;;15.13;90.33;100990.84;6206821;22;49863;-70
2022/11/07 19:52:12;;;;;;;;;5.75;4.00;;;;;14.40;90.67;100864.41;6202887;22;57995;-80
2022/11/07 19:54:38;;;;;;;;;5.00;4.75;;;;;15.11;90.84;100988.22;6206143;22;49844;-74
2022/11/07 19:57:03;;;;;;;;;4.75;4.75;;;;;15.10;91.17;100985.56;6206985;22;49856;-74
2022/11/07 19:59:29;;;;;;;;;6.00;5.00;;;;;15.10;91.06;100986.44;6210155;22;49732;-75
2022/11/07 20:01:55;;;;;;;;;6.75;6.75;;;;;14.76;91.18;100921.00;6216728;22;49303;-74
2022/11/07 20:04:20;;;;;;;;;5.00;5.00;;;;;14.33;91.20;100862.59;6218698;22;49244;-76
2022/11/07 20:06:46;;;;;;;;;4.75;4.75;;;;;14.18;91.30;100866.00;6217538;22;50606;-70
2022/11/07 20:09:11;;;;;;;;;4.00;3.00;;;;;14.82;91.54;100932.53;6217271;22;49307;-71
2022/11/07 20:11:37;;;;;;;;;3.75;3.00;;;;;13.44;91.61;100715.88;6217600;22;49448;-76
2022/11/07 20:14:03;;;;;;;;;3.75;3.75;;;;;14.86;91.66;100949.28;6217779;22;49686;-78
2022/11/07 20:16:29;;;;;;;;;5.00;5.00;;;;;14.64;92.20;100916.53;6217610;22;49876;-74
2022/11/07 20:18:54;;;;;;;;;5.00;3.75;;;;;14.98;91.87;100967.00;6217587;22;49558;-74
2022/11/07 20:21:22;;;;;;;;;7.00;4.25;;;;;14.06;92.60;100820.16;6216694;22;49721;-76
2022/11/07 20:23:51;;;;;;;;;6.00;4.00;;;;;13.64;92.46;100766.16;6210830;22;49629;-82
2022/11/07 20:26:20;;;;;;;;;6.00;5.00;;;;;13.76;92.70;100779.44;6205511;22;49746;-76
2022/11/07 20:28:47;;;;;;;;;5.50;5.50;;;;;14.92;93.04;100954.59;6203473;22;49762;-78
2022/11/07 20:31:17;;;;;;;;;3.75;3.75;;;;;13.74;93.17;100744.25;6204175;22;49780;-78
2022/11/07 20:33:43;;;;;;;;;5.75;4.25;;;;;14.91;93.33;100966.06;6204361;22;49776;-82
2022/11/07 20:36:11;;;;;;;;;4.00;4.00;;;;;14.70;93.06;100921.88;6203859;22;50781;-70
2022/11/07 20:38:38;;;;;;;;;5.00;5.00;;;;;14.67;93.96;100906.03;6207563;22;49760;-74
2022/11/07 20:41:04;;;;;;;;;7.25;5.00;;;;;14.85;93.50;100958.06;6205764;22;49938;-75
2022/11/07 20:43:32;;;;;;;;;4.00;4.00;;;;;14.84;94.00;100935.16;6205878;22;49685;-73
2022/11/07 20:46:05;;;;;;;;;7.75;6.00;;;;;14.66;93.95;100928.00;6205664;22;49937;-75
2022/11/07 20:48:30;;;;;;;;;6.00;4.00;;;;;14.34;93.99;100859.06;6205582;22;49828;-76
2022/11/07 20:50:56;;;;;;;;;5.25;4.75;;;;;13.23;94.56;100684.97;6206103;22;49598;-76
2022/11/07 20:53:21;;;;;;;;;5.50;5.50;;;;;14.65;94.55;100923.59;6206163;22;49669;-74
2022/11/07 20:55:46;;;;;;;;;8.25;6.50;;;;;13.31;94.40;100688.50;6205340;22;50413;-74
2022/11/07 20:58:12;;;;;;;;;7.25;7.00;;;;;14.71;95.16;100938.63;6204707;22;54159;-74
2022/11/07 21:00:39;;;;;;;;;7.00;6.00;;;;;14.68;94.89;100944.78;6205725;22;49646;-74
2022/11/07 21:03:05;;;;;;;;;5.25;5.00;;;;;14.19;94.97;100883.63;6205098;22;49752;-75
2022/11/07 21:05:30;;;;;;;;;5.00;5.00;;;;;13.92;95.06;100841.16;6205279;22;49666;-76
2022/11/07 21:07:56;;;;;;;;;5.25;5.25;;;;;12.95;95.04;100664.44;6205636;22;49658;-74
2022/11/07 21:10:21;;;;;;;;;9.25;6.00;;;;;14.44;95.33;100910.22;6205058;22;49634;-77
2022/11/07 21:12:47;;;;;;;;;6.75;5.75;;;;;13.64;94.86;100782.00;6205688;22;49629;-85
2022/11/07 21:15:12;;;;;;;;;7.25;6.25;;;;;13.74;95.16;100797.91;6205303;22;50217;-77
2022/11/07 21:17:38;;;;;;;;;6.50;5.25;;;;;14.57;95.11;100936.78;6205634;22;49886;-76
2022/11/07 21:20:04;;;;;;;;;6.00;6.00;;;;;14.29;95.22;100874.91;6206134;22;49850;-77
2022/11/07 21:22:30;;;;;;;;;9.50;7.00;;;;;13.27;95.41;100723.66;6206107;22;49567;-81
2022/11/07 21:24:56;;;;;;;;;8.00;8.00;;;;;13.75;95.49;100804.94;6205786;22;49971;-80
2022/11/07 21:27:21;;;;;;;;;11.25;9.25;;;;;14.54;95.76;100946.41;6206119;22;49645;-76
2022/11/07 21:29:46;;;;;;;;;7.00;7.00;;;;;12.85;95.70;100650.31;6206513;22;49621;-77
2022/11/07 21:32:12;;;;;;;;;8.25;8.25;;;;;14.42;96.11;100899.63;6206784;22;49797;-77
2022/11/07 21:34:37;;;;;;;;;9.75;7.75;;;;;14.26;96.34;100880.13;6206248;22;50377;-77
2022/11/07 21:37:03;;;;;;;;;8.00;8.00;;;;;13.57;96.43;100781.03;6206414;22;49791;-78
2022/11/07 21:39:29;;;;;;;;;8.50;8.50;;;;;13.75;97.11;100798.78;6207328;22;49769;-76
2022/11/07 21:41:54;;;;;;;;;8.75;8.75;;;;;14.45;97.33;100915.53;6206468;22;49851;-76
2022/11/07 21:44:19;;;;;;;;;7.75;7.75;;;;;14.42;97.55;100922.53;6205050;22;50809;-82
2022/11/07 21:46:45;;;;;;;;;7.00;7.00;;;;;14.41;97.79;100920.75;6206410;22;49717;-83
2022/11/07 21:49:10;;;;;;;;;11.50;9.00;;;;;14.38;97.80;100915.44;6206384;22;50540;-83
2022/11/07 21:51:35;;;;;;;;;9.25;8.25;;;;;12.72;97.80;100627.31;6205491;22;49794;-77
2022/11/07 21:54:02;;;;;;;;;7.00;6.25;;;;;14.30;97.62;100908.34;6207033;22;49660;-76
2022/11/07 21:56:31;;;;;;;;;8.50;8.50;;;;;12.99;97.92;100693.47;6209591;22;49582;-75
2022/11/07 21:59:01;;;;;;;;;0.00;0.00;;;;;14.12;97.95;100894.13;6209178;22;49778;-77
2022/11/07 22:01:28;;;;;;;;;7.00;6.00;;;;;14.08;98.43;100887.91;6206779;22;49612;-76
2022/11/07 22:03:53;;;;;;;;;12.00;11.25;;;;;12.93;97.74;100687.25;6207694;22;50726;-76
2022/11/07 22:06:20;;;;;;;;;10.75;10.75;;;;;13.92;98.36;100863.16;6209592;22;49878;-78
2022/11/07 22:08:47;;;;;;;;;6.25;6.00;;;;;13.13;97.58;100734.03;6207624;22;49684;-77
2022/11/07 22:11:13;;;;;;;;;10.75;9.00;;;;;13.38;97.88;100747.47;6207854;22;49849;-78
2022/11/07 22:13:38;;;;;;;;;10.25;8.50;;;;;13.83;97.90;100818.22;6208533;22;50764;-80
2022/11/07 22:16:10;;;;;;;;;13.50;10.00;;;;;13.79;97.85;100831.34;6206817;22;49623;-80
2022/11/07 22:18:36;;;;;;;;;8.50;8.50;;;;;14.16;97.71;100866.84;6205964;22;49844;-76
2022/11/07 22:21:03;;;;;;;;;13.00;7.75;;;;;13.22;97.61;100700.72;6207136;22;50038;-83
2022/11/07 22:23:34;;;;;;;;;9.50;7.00;;;;;12.66;97.98;100616.75;6205753;22;49877;-79
2022/11/07 22:26:05;;;;;;;;;14.00;7.75;;;;;13.36;98.43;100765.91;6205978;22;49807;-80
2022/11/07 22:28:31;;;;;;;;;9.00;9.00;;;;;14.06;98.07;100876.47;6203348;22;50132;-84
2022/11/07 22:30:56;;;;;;;;;9.25;8.00;;;;;14.06;98.06;100867.66;6206588;22;49670;-79
2022/11/07 22:33:22;;;;;;;;;13.00;9.50;;;;;13.73;97.73;100811.97;6206679;22;49838;-79
2022/11/07 22:35:47;;;;;;;;;7.75;7.00;;;;;14.02;98.07;100857.09;6207052;22;49638;-80
2022/11/07 22:38:12;;;;;;;;;8.50;7.50;;;;;13.35;98.19;100756.25;6205983;22;49803;-82
2022/11/07 22:40:45;;;;;;;;;7.00;7.00;;;;;13.92;98.92;100854.34;6206363;22;49694;-80
2022/11/07 22:43:11;;;;;;;;;8.00;7.75;;;;;12.56;98.36;100642.09;6206392;22;49786;-78
2022/11/07 22:45:38;;;;;;;;;8.00;7.00;;;;;13.92;98.89;100855.25;6208265;22;49704;-85
2022/11/07 22:48:03;;;;;;;;;8.00;8.00;;;;;12.45;98.49;100597.25;6208318;22;49516;-77
2022/11/07 22:50:29;;;;;;;;;10.75;9.25;;;;;12.88;98.49;100672.28;6205961;22;49849;-80
2022/11/07 22:52:54;;;;;;;;;10.75;7.50;;;;;13.26;98.33;100729.78;6207487;22;49574;-78
2022/11/07 22:55:20;;;;;;;;;9.75;8.25;;;;;13.64;99.29;100793.44;6207829;22;49915;-84
2022/11/07 22:57:45;;;;;;;;;7.75;7.25;;;;;13.36;98.71;100762.41;6207401;22;49503;-87
2022/11/07 23:00:11;;;;;;;;;7.75;5.50;;;;;13.89;98.75;100812.09;6207600;22;49813;-87
2022/11/07 23:02:37;;;;;;;;;8.75;6.00;;;;;13.20;98.59;100707.75;6206131;22;49957;-82
2022/11/07 23:05:02;;;;;;;;;9.00;8.25;;;;;13.14;98.81;100712.06;6204788;22;49791;-76
2022/11/07 23:07:27;;;;;;;;;10.50;10.50;;;;;13.85;98.66;100799.75;6205754;22;49594;-77
2022/11/07 23:09:53;;;;;;;;;11.50;10.00;;;;;13.23;98.74;100724.50;6205117;22;52796;-83
2022/11/07 23:12:18;;;;;;;;;6.75;6.75;;;;;13.41;98.95;100755.41;6205548;22;49594;-76
2022/11/07 23:14:45;;;;;;;;;10.25;8.00;;;;;12.94;98.85;100682.00;6206561;22;49737;-77
2022/11/07 23:17:10;;;;;;;;;8.75;8.75;;;;;13.48;99.47;100772.16;6207521;22;49566;-76
2022/11/07 23:19:36;;;;;;;;;9.50;9.50;;;;;13.79;99.49;100799.69;6207305;22;49550;-77
2022/11/07 23:22:01;;;;;;;;;11.25;9.25;;;;;13.72;99.41;100801.41;6204692;22;49686;-77
2022/11/07 23:24:26;;;;;;;;;6.25;5.75;;;;;13.75;99.63;100794.41;6206142;22;49736;-76
